Terminal Aerodrome Forecast
Issued by NWS

Home | Current Version | Previous Version | Text Only | Print | Product List | Glossary On
Versions: 1 2 3 4 5 6 7 8 9 10 11 12 13 14 15 16 17 18 19 20 21 22
464
FTUS41 KBGM 122320
TAFELM
TAF
KELM 122320Z 1300/1324 28011G22KT P6SM BKN060
     FM131200 30014G22KT P6SM BKN025
     FM131700 29017G26KT P6SM BKN035=

USA.gov is the U.S. government's official web portal to all federal, state and local government web resources and services.